Observation data for Floydada on 01/11/2019      Previous  Date  Next       Current Mesonet Observations  Soil Data  Daily Summary Page  Observations in Plain Language
KFLS 110600Z 19011KT 09/06 A2998 RMK A01 T00900063  RH  085%=      5-min Rain = 0
KFLS 110605Z 19011KT 09/06 A2998 RMK A01 T00900064  RH  085%=      5-min Rain = 0
KFLS 110610Z 19010KT 09/06 A2998 RMK A01 T00900063  RH  085%=      5-min Rain = 0
KFLS 110615Z 19010KT 09/06 A2998 RMK A01 T00890063  RH  085%=      5-min Rain = 0
KFLS 110620Z 19010KT 09/06 A2998 RMK A01 T00890063  RH  085%=      5-min Rain = 0
KFLS 110625Z 19010KT 09/06 A2998 RMK A01 T00890063  RH  085%=      5-min Rain = 0
KFLS 110630Z 19010KT 09/06 A2998 RMK A01 T00890063  RH  085%=      5-min Rain = 0
KFLS 110635Z 19011KT 09/06 A2998 RMK A01 T00890063  RH  085%=      5-min Rain = 0
KFLS 110640Z 19010KT 09/06 A2998 RMK A01 T00890063  RH  085%=      5-min Rain = 0
KFLS 110645Z 19010KT 09/06 A2998 RMK A01 T00890063  RH  085%=      5-min Rain = 0
KFLS 110650Z 19009KT 09/06 A2998 RMK A01 T00870062  RH  085%=      5-min Rain = 0
KFLS 110655Z 19010KT 09/06 A2997 RMK A01 T00870062  RH  085%=      5-min Rain = 0
KFLS 110700Z 19009KT 09/06 A2997 RMK A01 T00870061  RH  085%=      5-min Rain = 0
KFLS 110705Z 18007KT 09/06 A2997 RMK A01 T00850060  RH  086%=      5-min Rain = 0
KFLS 110710Z 19008KT 09/06 A2997 RMK A01 T00860061  RH  086%=      5-min Rain = 0
KFLS 110715Z 19008G14KT 09/06 A2997 RMK A01 T00870061  RH  085%=      5-min Rain = 0
KFLS 110720Z 20011KT 09/06 A2997 RMK A01 T00900062  RH  084%=      5-min Rain = 0
KFLS 110725Z 19012G17KT 09/06 A2997 RMK A01 T00910062  RH  083%=      5-min Rain = 0
KFLS 110730Z 19011KT 09/06 A2997 RMK A01 T00910061  RH  083%=      5-min Rain = 0
KFLS 110735Z 19011KT 09/06 A2997 RMK A01 T00900061  RH  083%=      5-min Rain = 0
KFLS 110740Z 19012G17KT 09/06 A2997 RMK A01 T00900061  RH  083%=      5-min Rain = 0
KFLS 110745Z 19012KT 09/06 A2997 RMK A01 T00900061  RH  083%=      5-min Rain = 0
KFLS 110750Z 19012KT 09/06 A2997 RMK A01 T00900061  RH  083%=      5-min Rain = 0
KFLS 110755Z 19012G18KT 09/06 A2997 RMK A01 T00900061  RH  083%=      5-min Rain = 0
KFLS 110800Z 19012G17KT 09/06 A2997 RMK A01 T00910061  RH  083%=      5-min Rain = 0
KFLS 110805Z 20012G19KT 09/06 A2997 RMK A01 T00900060  RH  083%=      5-min Rain = 0
KFLS 110810Z 20013G18KT 09/06 A2997 RMK A01 T00910060  RH  082%=      5-min Rain = 0
KFLS 110815Z 20013KT 09/06 A2997 RMK A01 T00900060  RH  083%=      5-min Rain = 0
KFLS 110820Z 20013KT 09/06 A2997 RMK A01 T00900060  RH  083%=      5-min Rain = 0
KFLS 110825Z 20011KT 09/06 A2996 RMK A01 T00910060  RH  082%=      5-min Rain = 0
KFLS 110830Z 19013KT 09/06 A2995 RMK A01 T00910060  RH  082%=      5-min Rain = 0
KFLS 110835Z 19012KT 09/06 A2996 RMK A01 T00910060  RH  082%=      5-min Rain = 0
KFLS 110840Z 20012KT 09/06 A2996 RMK A01 T00910061  RH  083%=      5-min Rain = 0
KFLS 110845Z 20012KT 09/06 A2996 RMK A01 T00900061  RH  083%=      5-min Rain = 0
KFLS 110850Z 20012G18KT 09/06 A2995 RMK A01 T00900060  RH  083%=      5-min Rain = 0
KFLS 110855Z 20012G17KT 09/06 A2995 RMK A01 T00890060  RH  083%=      5-min Rain = 0
KFLS 110900Z 20010KT 09/06 A2994 RMK A01 T00890060  RH  083%=      5-min Rain = 0
KFLS 110905Z 20010KT 09/06 A2993 RMK A01 T00880060  RH  084%=      5-min Rain = 0
KFLS 110910Z 20012KT 09/06 A2994 RMK A01 T00880060  RH  084%=      5-min Rain = 0
KFLS 110915Z 20010KT 09/06 A2993 RMK A01 T00880059  RH  083%=      5-min Rain = 0
KFLS 110920Z 20011KT 09/06 A2992 RMK A01 T00880059  RH  084%=      5-min Rain = 0
KFLS 110925Z 20011KT 09/06 A2992 RMK A01 T00870059  RH  084%=      5-min Rain = 0
KFLS 110930Z 20010KT 09/06 A2992 RMK A01 T00870060  RH  084%=      5-min Rain = 0
KFLS 110935Z 19008KT 09/06 A2991 RMK A01 T00880060  RH  084%=      5-min Rain = 0
KFLS 110940Z 19007KT 09/06 A2991 RMK A01 T00870060  RH  084%=      5-min Rain = 0
KFLS 110945Z 19007KT 09/06 A299 RMK A01 T00860062  RH  086%=      5-min Rain = 0
KFLS 110950Z 18007KT 09/06 A299 RMK A01 T00860063  RH  086%=      5-min Rain = 0
KFLS 110955Z 18010G16KT 09/06 A2991 RMK A01 T00850062  RH  087%=      5-min Rain = 0
KFLS 111000Z 18012G17KT 08/06 A2992 RMK A01 T00830061  RH  088%=      5-min Rain = 0
KFLS 111005Z 18013G18KT 08/06 A2992 RMK A01 T00820061  RH  088%=      5-min Rain = 0
KFLS 111010Z 19013G18KT 08/06 A2992 RMK A01 T00820062  RH  088%=      5-min Rain = 0
KFLS 111015Z 19011KT 08/06 A2991 RMK A01 T00830062  RH  088%=      5-min Rain = 0
KFLS 111020Z 19011G16KT 08/06 A2991 RMK A01 T00830062  RH  088%=      5-min Rain = 0
KFLS 111025Z 19012KT 08/06 A2992 RMK A01 T00830062  RH  088%=      5-min Rain = 0
KFLS 111030Z 19011KT 08/06 A2991 RMK A01 T00830063  RH  088%=      5-min Rain = 0
KFLS 111035Z 19012G17KT 08/06 A2991 RMK A01 T00840064  RH  088%=      5-min Rain = 0
KFLS 111040Z 19011KT 08/06 A2991 RMK A01 T00840064  RH  089%=      5-min Rain = 0
KFLS 111045Z 18012G18KT 08/07 A299 RMK A01 T00840065  RH  089%=      5-min Rain = 0
KFLS 111050Z 19013G18KT 09/07 A299 RMK A01 T00850066  RH  089%=      5-min Rain = 0
KFLS 111055Z 19013G18KT 09/07 A299 RMK A01 T00850067  RH  090%=      5-min Rain = 0
KFLS 111100Z 19013G19KT 08/07 A299 RMK A01 T00840067  RH  091%=      5-min Rain = 0
KFLS 111105Z 20013KT 08/07 A299 RMK A01 T00830067  RH  091%=      5-min Rain = 0
KFLS 111110Z 19013KT 08/07 A299 RMK A01 T00830067  RH  091%=      5-min Rain = 0
KFLS 111115Z 19014KT 08/07 A299 RMK A01 T00830067  RH  091%=      5-min Rain = 0
KFLS 111120Z 19013KT 08/07 A299 RMK A01 T00820067  RH  091%=      5-min Rain = 0
KFLS 111125Z 20012G17KT 08/07 A299 RMK A01 T00820067  RH  091%=      5-min Rain = 0
KFLS 111130Z 20013KT 08/07 A299 RMK A01 T00820067  RH  092%=      5-min Rain = 0
KFLS 111135Z 20014KT 08/07 A299 RMK A01 T00820067  RH  092%=      5-min Rain = 0
KFLS 111140Z 20013KT 08/07 A299 RMK A01 T00820068  RH  092%=      5-min Rain = 0
KFLS 111145Z 20012KT 08/07 A299 RMK A01 T00820068  RH  092%=      5-min Rain = 0
KFLS 111150Z 20012KT 08/07 A2989 RMK A01 T00820068  RH  092%=      5-min Rain = 0
KFLS 111155Z 20012G17KT 08/07 A2989 RMK A01 T00830068  RH  092%=      5-min Rain = 0
KFLS 111200Z 20010G15KT 08/07 A2989 RMK A01 T00830068  RH  092%=      5-min Rain = 0
KFLS 111205Z 20011KT 08/07 A2989 RMK A01 T00840069  RH  092%=      5-min Rain = 0
KFLS 111210Z 20012KT 08/07 A2989 RMK A01 T00840069  RH  092%=      5-min Rain = 0
KFLS 111215Z 20010KT 08/07 A2989 RMK A01 T00840069  RH  092%=      5-min Rain = 0
KFLS 111220Z 20011KT 08/07 A2989 RMK A01 T00840069  RH  092%=      5-min Rain = 0
KFLS 111225Z 20011KT 09/07 A2989 RMK A01 T00850070  RH  091%=      5-min Rain = 0
KFLS 111230Z 20010KT 09/07 A2989 RMK A01 T00850070  RH  092%=      5-min Rain = 0
KFLS 111235Z 20011KT 09/07 A2989 RMK A01 T00850070  RH  092%=      5-min Rain = 0
KFLS 111240Z 20011KT 09/07 A2989 RMK A01 T00850070  RH  092%=      5-min Rain = 0
KFLS 111245Z 20010KT 09/07 A2989 RMK A01 T00850070  RH  092%=      5-min Rain = 0
KFLS 111250Z 20009KT 09/07 A2988 RMK A01 T00850070  RH  092%=      5-min Rain = 0
KFLS 111255Z 19009KT 08/07 A2987 RMK A01 T00840070  RH  092%=      5-min Rain = 0
KFLS 111300Z 19009KT 08/07 A2987 RMK A01 T00840070  RH  092%=      5-min Rain = 0
KFLS 111305Z 19009KT 08/07 A2987 RMK A01 T00840070  RH  092%=      5-min Rain = 0
KFLS 111310Z 19008KT 08/07 A2987 RMK A01 T00830069  RH  092%=      5-min Rain = 0
KFLS 111315Z 19009KT 08/07 A2987 RMK A01 T00830069  RH  092%=      5-min Rain = 0
KFLS 111320Z 19009KT 08/07 A2988 RMK A01 T00820069  RH  093%=      5-min Rain = 0
KFLS 111325Z 20009KT 08/07 A2988 RMK A01 T00820069  RH  093%=      5-min Rain = 0
KFLS 111330Z 20009KT 08/07 A2988 RMK A01 T00810069  RH  093%=      5-min Rain = 0
KFLS 111335Z 20008KT 08/07 A2988 RMK A01 T00810068  RH  093%=      5-min Rain = 0
KFLS 111340Z 20010KT 08/07 A2988 RMK A01 T00800068  RH  093%=      5-min Rain = 0
KFLS 111345Z 20010KT 08/07 A2988 RMK A01 T00810069  RH  094%=      5-min Rain = 0
KFLS 111350Z 20010G15KT 08/07 A2988 RMK A01 T00810069  RH  093%=      5-min Rain = 0
KFLS 111355Z 20010KT 08/07 A2987 RMK A01 T00810069  RH  094%=      5-min Rain = 0
KFLS 111400Z 20011KT 08/07 A2987 RMK A01 T00820070  RH  094%=      5-min Rain = 0
KFLS 111405Z 21011KT 08/07 A2988 RMK A01 T00820070  RH  094%=      5-min Rain = 0
KFLS 111410Z 20011KT 08/07 A2988 RMK A01 T00830071  RH  094%=      5-min Rain = 0
KFLS 111415Z 20010G15KT 08/07 A2988 RMK A01 T00820071  RH  094%=      5-min Rain = 0
KFLS 111420Z 20011KT 08/07 A2988 RMK A01 T00830071  RH  094%=      5-min Rain = 0
KFLS 111425Z 20010KT 08/07 A2989 RMK A01 T00820071  RH  094%=      5-min Rain = 0
KFLS 111430Z 20010KT 08/07 A2989 RMK A01 T00830072  RH  094%=      5-min Rain = 0
KFLS 111435Z 20010KT 08/07 A2988 RMK A01 T00840073  RH  094%=      5-min Rain = 0
KFLS 111440Z 20010KT 08/07 A2988 RMK A01 T00840073  RH  094%=      5-min Rain = 0
KFLS 111445Z 19009KT 08/07 A2988 RMK A01 T00840073  RH  094%=      5-min Rain = 0
KFLS 111450Z 20009KT 09/07 A2988 RMK A01 T00850074  RH  094%=      5-min Rain = 0
KFLS 111455Z 20010KT 09/08 A2988 RMK A01 T00860075  RH  094%=      5-min Rain = 0
KFLS 111500Z 19009KT 09/08 A2988 RMK A01 T00870075  RH  093%=      5-min Rain = 0
KFLS 111505Z 19010KT 09/08 A2988 RMK A01 T00880075  RH  093%=      5-min Rain = 0
KFLS 111510Z 19011KT 09/08 A2988 RMK A01 T00880075  RH  093%=      5-min Rain = 0
KFLS 111515Z 19011KT 09/08 A2988 RMK A01 T00890075  RH  093%=      5-min Rain = 0
KFLS 111520Z 20010KT 09/08 A2989 RMK A01 T00900076  RH  092%=      5-min Rain = 0
KFLS 111525Z 20011KT 09/08 A2988 RMK A01 T00910076  RH  092%=      5-min Rain = 0
KFLS 111530Z 20012KT 09/08 A2988 RMK A01 T00910076  RH  091%=      5-min Rain = 0
KFLS 111535Z 20012KT 09/08 A2989 RMK A01 T00920076  RH  091%=      5-min Rain = 0
KFLS 111540Z 20012KT 09/08 A299 RMK A01 T00930077  RH  091%=      5-min Rain = 0
KFLS 111545Z 20013KT 09/08 A299 RMK A01 T00940077  RH  091%=      5-min Rain = 0
KFLS 111550Z 20012KT 10/08 A299 RMK A01 T00950078  RH  090%=      5-min Rain = 0
KFLS 111555Z 20013KT 10/08 A299 RMK A01 T00960078  RH  090%=      5-min Rain = 0
KFLS 111600Z 19013G18KT 10/08 A299 RMK A01 T00960078  RH  090%=      5-min Rain = 0
KFLS 111605Z 19014KT 10/08 A2991 RMK A01 T00970078  RH  090%=      5-min Rain = 0
KFLS 111610Z 20014KT 10/08 A2991 RMK A01 T00970078  RH  089%=      5-min Rain = 0
KFLS 111615Z 20014KT 10/08 A2991 RMK A01 T00970079  RH  089%=      5-min Rain = 0
KFLS 111620Z 20014G19KT 10/08 A2991 RMK A01 T00970079  RH  089%=      5-min Rain = 0
KFLS 111625Z 20014KT 10/08 A299 RMK A01 T00980079  RH  089%=      5-min Rain = 0
KFLS 111630Z 21013G18KT 10/08 A2991 RMK A01 T00990079  RH  089%=      5-min Rain = 0
KFLS 111635Z 21012KT 10/08 A299 RMK A01 T01010080  RH  088%=      5-min Rain = 0
KFLS 111640Z 20013KT 10/08 A299 RMK A01 T01020079  RH  087%=      5-min Rain = 0
KFLS 111645Z 20014G20KT 10/08 A299 RMK A01 T01020079  RH  087%=      5-min Rain = 0
KFLS 111650Z 20012KT 10/08 A299 RMK A01 T01040079  RH  086%=      5-min Rain = 0
KFLS 111655Z 20013KT 11/08 A299 RMK A01 T01060079  RH  085%=      5-min Rain = 0
KFLS 111700Z 20012KT 11/08 A299 RMK A01 T01080077  RH  083%=      5-min Rain = 0
KFLS 111705Z 20014KT 11/08 A299 RMK A01 T01080076  RH  082%=      5-min Rain = 0
KFLS 111710Z 20015KT 11/08 A2989 RMK A01 T01070075  RH  082%=      5-min Rain = 0
KFLS 111715Z 21014G19KT 11/07 A2989 RMK A01 T01070074  RH  081%=      5-min Rain = 0
KFLS 111720Z 20013KT 11/07 A2988 RMK A01 T01070073  RH  081%=      5-min Rain = 0
KFLS 111725Z 20012G17KT 11/07 A2988 RMK A01 T01080073  RH  080%=      5-min Rain = 0
KFLS 111730Z 21011KT 11/07 A2988 RMK A01 T01090072  RH  079%=      5-min Rain = 0
KFLS 111735Z 21013G18KT 11/07 A2988 RMK A01 T01110070  RH  077%=      5-min Rain = 0
KFLS 111740Z 21012KT 11/07 A2987 RMK A01 T01130071  RH  076%=      5-min Rain = 0
KFLS 111745Z 21013KT 11/07 A2987 RMK A01 T01130069  RH  076%=      5-min Rain = 0
KFLS 111750Z 21012KT 11/07 A2987 RMK A01 T01130069  RH  075%=      5-min Rain = 0
KFLS 111755Z 21012KT 11/07 A2986 RMK A01 T01130069  RH  075%=      5-min Rain = 0
KFLS 111800Z 21011G17KT 11/07 A2986 RMK A01 T01140070  RH  076%=      5-min Rain = 0
KFLS 111805Z 21012G18KT 12/07 A2986 RMK A01 T01150071  RH  075%=      5-min Rain = 0
KFLS 111810Z 21013KT 12/07 A2985 RMK A01 T01160072  RH  076%=      5-min Rain = 0
KFLS 111815Z 21013KT 12/07 A2984 RMK A01 T01150073  RH  076%=      5-min Rain = 0
KFLS 111820Z 21014G19KT 12/07 A2984 RMK A01 T01160072  RH  076%=      5-min Rain = 0
KFLS 111825Z 21014G19KT 12/07 A2983 RMK A01 T01160073  RH  076%=      5-min Rain = 0
KFLS 111830Z 21014KT 12/07 A2982 RMK A01 T01160073  RH  076%=      5-min Rain = 0
KFLS 111835Z 22012G17KT 12/07 A2982 RMK A01 T01180073  RH  075%=      5-min Rain = 0
KFLS 111840Z 22012KT 12/07 A2982 RMK A01 T01200073  RH  074%=      5-min Rain = 0
KFLS 111845Z 23012KT 12/07 A2981 RMK A01 T01220073  RH  073%=      5-min Rain = 0
KFLS 111850Z 23014G21KT 13/07 A2981 RMK A01 T01280069  RH  068%=      5-min Rain = 0
KFLS 111855Z 23016G22KT 13/06 A2981 RMK A01 T01280062  RH  065%=      5-min Rain = 0
KFLS 111900Z 23017G22KT 13/06 A298 RMK A01 T01300059  RH  063%=      5-min Rain = 0
KFLS 111905Z 23018G24KT 13/06 A298 RMK A01 T01320056  RH  061%=      5-min Rain = 0
KFLS 111910Z 23018G23KT 13/06 A298 RMK A01 T01330056  RH  060%=      5-min Rain = 0
KFLS 111915Z 23019G24KT 14/06 A298 RMK A01 T01390058  RH  059%=      5-min Rain = 0
KFLS 111920Z 23019G26KT 13/06 A298 RMK A01 T01320056  RH  061%=      5-min Rain = 0
KFLS 111925Z 23016G23KT 13/06 A298 RMK A01 T01340059  RH  061%=      5-min Rain = 0
KFLS 111930Z 23018G24KT 13/06 A298 RMK A01 T01330058  RH  061%=      5-min Rain = 0
KFLS 111935Z 23016G23KT 13/06 A2979 RMK A01 T01330059  RH  062%=      5-min Rain = 0
KFLS 111940Z 23017G22KT 14/06 A2979 RMK A01 T01350060  RH  061%=      5-min Rain = 0
KFLS 111945Z 23019G25KT 14/05 A2979 RMK A01 T01350053  RH  058%=      5-min Rain = 0
KFLS 111950Z 24020G27KT 14/05 A2979 RMK A01 T01370048  RH  055%=      5-min Rain = 0
KFLS 111955Z 24020G26KT 14/05 A2979 RMK A01 T01390047  RH  054%=      5-min Rain = 0
KFLS 112000Z 25020G25KT 14/04 A2979 RMK A01 T01390044  RH  053%=      5-min Rain = 0
KFLS 112005Z 25020G29KT 14/04 A2978 RMK A01 T01400041  RH  052%=      5-min Rain = 0
KFLS 112010Z 24020KT 14/04 A2978 RMK A01 T01380038  RH  051%=      5-min Rain = 0
KFLS 112015Z 24019G24KT 14/04 A2978 RMK A01 T01380037  RH  051%=      5-min Rain = 0
KFLS 112020Z 25019KT 14/04 A2979 RMK A01 T01390038  RH  051%=      5-min Rain = 0
KFLS 112025Z 26019G24KT 14/04 A2979 RMK A01 T01370039  RH  052%=      5-min Rain = 0
KFLS 112030Z 27017G22KT 14/04 A2979 RMK A01 T01350039  RH  053%=      5-min Rain = 0
KFLS 112035Z 27015G21KT 14/04 A2979 RMK A01 T01370042  RH  053%=      5-min Rain = 0
KFLS 112040Z 28017G22KT 14/04 A2979 RMK A01 T01380042  RH  053%=      5-min Rain = 0
KFLS 112045Z 26018G23KT 13/04 A2979 RMK A01 T01340040  RH  054%=      5-min Rain = 0
KFLS 112050Z 27016KT 14/04 A2979 RMK A01 T01350041  RH  054%=      5-min Rain = 0
KFLS 112055Z 27017G24KT 14/04 A2979 RMK A01 T01350042  RH  054%=      5-min Rain = 0
KFLS 112100Z 28017G23KT 13/05 A2979 RMK A01 T01320047  RH  057%=      5-min Rain = 0
KFLS 112105Z 30018G23KT 13/05 A2979 RMK A01 T01270049  RH  060%=      5-min Rain = 0
KFLS 112110Z 30019G24KT 13/05 A2979 RMK A01 T01320051  RH  058%=      5-min Rain = 0
KFLS 112115Z 30020G26KT 12/05 A298 RMK A01 T01220049  RH  061%=      5-min Rain = 0
KFLS 112120Z 30018KT 12/05 A298 RMK A01 T01150047  RH  063%=      5-min Rain = 0
KFLS 112125Z 30017G24KT 12/05 A2981 RMK A01 T01150047  RH  064%=      5-min Rain = 0
KFLS 112130Z 30019G25KT 11/05 A2981 RMK A01 T01130046  RH  064%=      5-min Rain = 0
KFLS 112135Z 31019KT 12/05 A2981 RMK A01 T01170047  RH  063%=      5-min Rain = 0
KFLS 112140Z 31018G26KT 11/05 A2982 RMK A01 T01100045  RH  065%=      5-min Rain = 0
KFLS 112145Z 31019G25KT 10/04 A2982 RMK A01 T00970041  RH  069%=      5-min Rain = 0
KFLS 112150Z 31016G21KT 09/04 A2982 RMK A01 T00940040  RH  070%=      5-min Rain = 0
KFLS 112155Z 31017G23KT 10/04 A2982 RMK A01 T00960038  RH  068%=      5-min Rain = 0
KFLS 112200Z 32014G19KT 09/04 A2982 RMK A01 T00920036  RH  069%=      5-min Rain = 0
KFLS 112205Z 32013G19KT 09/04 A2982 RMK A01 T00900035  RH  070%=      5-min Rain = 0
KFLS 112210Z 31015G22KT 09/04 A2982 RMK A01 T00930037  RH  069%=      5-min Rain = 0
KFLS 112215Z 31016G21KT 10/04 A2982 RMK A01 T00950037  RH  068%=      5-min Rain = 0
KFLS 112220Z 31016G21KT 09/04 A2983 RMK A01 T00910035  RH  069%=      5-min Rain = 0
KFLS 112225Z 31016KT 09/04 A2983 RMK A01 T00920036  RH  069%=      5-min Rain = 0
KFLS 112230Z 31015KT 10/04 A2983 RMK A01 T00960037  RH  067%=      5-min Rain = 0
KFLS 112235Z 31014KT 10/04 A2983 RMK A01 T00950036  RH  067%=      5-min Rain = 0
KFLS 112240Z 31015KT 09/04 A2983 RMK A01 T00900035  RH  069%=      5-min Rain = 0
KFLS 112245Z 30015KT 09/03 A2983 RMK A01 T00900034  RH  068%=      5-min Rain = 0
KFLS 112250Z 31014G20KT 09/03 A2983 RMK A01 T00910033  RH  068%=      5-min Rain = 0
KFLS 112255Z 31016KT 09/03 A2983 RMK A01 T00910032  RH  068%=      5-min Rain = 0
KFLS 112300Z 32014G19KT 09/03 A2984 RMK A01 T00890034  RH  069%=      5-min Rain = 0
KFLS 112305Z 31014G20KT 09/04 A2984 RMK A01 T00860035  RH  071%=      5-min Rain = 0
KFLS 112310Z 31016G22KT 08/03 A2984 RMK A01 T00830034  RH  072%=      5-min Rain = 0
KFLS 112315Z 32014G21KT 08/03 A2985 RMK A01 T00790033  RH  073%=      5-min Rain = 0
KFLS 112320Z 31016G22KT 08/03 A2985 RMK A01 T00760032  RH  074%=      5-min Rain = 0
KFLS 112325Z 31016G21KT 08/03 A2986 RMK A01 T00750031  RH  075%=      5-min Rain = 0
KFLS 112330Z 31016G21KT 07/03 A2985 RMK A01 T00740030  RH  075%=      5-min Rain = 0
KFLS 112335Z 32016G22KT 07/03 A2985 RMK A01 T00720030  RH  075%=      5-min Rain = 0
KFLS 112340Z 31016G21KT 07/03 A2985 RMK A01 T00690029  RH  076%=      5-min Rain = 0
KFLS 112345Z 31015G21KT 07/03 A2985 RMK A01 T00650028  RH  078%=      5-min Rain = 0
KFLS 112350Z 32014G19KT 06/03 A2985 RMK A01 T00620027  RH  079%=      5-min Rain = 0
KFLS 112355Z 32014G19KT 06/03 A2985 RMK A01 T00610027  RH  080%=      5-min Rain = 0
KFLS 120000Z 31013G19KT 06/03 A2985 RMK A01 T00610027  RH  080%=      5-min Rain = 0
KFLS 120005Z 31013KT 06/03 A2985 RMK A01 T00620026  RH  079%=      5-min Rain = 0
KFLS 120010Z 31013G18KT 06/03 A2986 RMK A01 T00600025  RH  079%=      5-min Rain = 0
KFLS 120015Z 30013G19KT 06/02 A2986 RMK A01 T00580022  RH  079%=      5-min Rain = 0
KFLS 120020Z 30013G18KT 06/02 A2987 RMK A01 T00550021  RH  080%=      5-min Rain = 0
KFLS 120025Z 31015G20KT 06/02 A2987 RMK A01 T00550021  RH  080%=      5-min Rain = 0
KFLS 120030Z 31015G21KT 05/02 A2987 RMK A01 T00530020  RH  080%=      5-min Rain = 0
KFLS 120035Z 31015KT 05/02 A2987 RMK A01 T00520019  RH  080%=      5-min Rain = 0
KFLS 120040Z 31013KT 05/02 A2988 RMK A01 T00500017  RH  080%=      5-min Rain = 0
KFLS 120045Z 31013KT 05/02 A2988 RMK A01 T00480016  RH  081%=      5-min Rain = 0
KFLS 120050Z 31012KT 05/02 A2988 RMK A01 T00480017  RH  081%=      5-min Rain = 0
KFLS 120055Z 32013KT 05/02 A2988 RMK A01 T00490018  RH  081%=      5-min Rain = 0
KFLS 120100Z 31013KT 05/02 A2988 RMK A01 T00510019  RH  081%=      5-min Rain = 0
KFLS 120105Z 31015G21KT 05/02 A2988 RMK A01 T00520019  RH  080%=      5-min Rain = 0
KFLS 120110Z 31015G21KT 05/02 A2988 RMK A01 T00530019  RH  080%=      5-min Rain = 0
KFLS 120115Z 31017G22KT 05/02 A2988 RMK A01 T00530018  RH  079%=      5-min Rain = 0
KFLS 120120Z 31018G24KT 05/02 A2988 RMK A01 T00540018  RH  079%=      5-min Rain = 0
KFLS 120125Z 32016G22KT 05/02 A2988 RMK A01 T00540018  RH  079%=      5-min Rain = 0
KFLS 120130Z 31017KT 05/02 A2989 RMK A01 T00510016  RH  079%=      5-min Rain = 0
KFLS 120135Z 32015G21KT 05/01 A2989 RMK A01 T00480014  RH  080%=      5-min Rain = 0
KFLS 120140Z 32013G19KT 05/01 A2989 RMK A01 T00460012  RH  080%=      5-min Rain = 0
KFLS 120145Z 32014G20KT 04/01 A299 RMK A01 T00440011  RH  080%=      5-min Rain = 0
KFLS 120150Z 31013G18KT 04/01 A299 RMK A01 T00430011  RH  081%=      5-min Rain = 0
KFLS 120155Z 31013KT 04/01 A299 RMK A01 T00440012  RH  081%=      5-min Rain = 0
KFLS 120200Z 31013KT 04/01 A299 RMK A01 T00440012  RH  081%=      5-min Rain = 0
KFLS 120205Z 31012KT 04/01 A2989 RMK A01 T00440013  RH  081%=      5-min Rain = 0
KFLS 120210Z 31012KT 05/01 A2989 RMK A01 T00450014  RH  081%=      5-min Rain = 0
KFLS 120215Z 31012G19KT 05/01 A299 RMK A01 T00470014  RH  081%=      5-min Rain = 0
KFLS 120220Z 30011G17KT 05/02 A299 RMK A01 T00480015  RH  080%=      5-min Rain = 0
KFLS 120225Z 31012KT 05/02 A2989 RMK A01 T00490015  RH  080%=      5-min Rain = 0
KFLS 120230Z 31015G21KT 05/02 A2989 RMK A01 T00510015  RH  079%=      5-min Rain = 0
KFLS 120235Z 32018G25KT 05/01 A2989 RMK A01 T00500012  RH  077%=      5-min Rain = 0
KFLS 120240Z 32015G22KT 05/01 A2989 RMK A01 T00490011  RH  077%=      5-min Rain = 0
KFLS 120245Z 32013G20KT 05/01 A299 RMK A01 T00480010  RH  077%=      5-min Rain = 0
KFLS 120250Z 31013G19KT 05/01 A299 RMK A01 T00480010  RH  077%=      5-min Rain = 0
KFLS 120255Z 31014G19KT 05/01 A299 RMK A01 T00490012  RH  078%=      5-min Rain = 0
KFLS 120300Z 31014G19KT 05/01 A299 RMK A01 T00490013  RH  078%=      5-min Rain = 0
KFLS 120305Z 30014G21KT 05/01 A299 RMK A01 T00490014  RH  079%=      5-min Rain = 0
KFLS 120310Z 30017G24KT 05/01 A299 RMK A01 T00490014  RH  079%=      5-min Rain = 0
KFLS 120315Z 31017G22KT 05/01 A299 RMK A01 T00480013  RH  079%=      5-min Rain = 0
KFLS 120320Z 31018G24KT 05/01 A299 RMK A01 T00450010  RH  079%=      5-min Rain = 0
KFLS 120325Z 31014G21KT 04/01 A2991 RMK A01 T00410007  RH  080%=      5-min Rain = 0
KFLS 120330Z 31012G17KT 04/01 A2991 RMK A01 T00370006  RH  081%=      5-min Rain = 0
KFLS 120335Z 31015G22KT 03/00 A2991 RMK A01 T00340003  RH  081%=      5-min Rain = 0
KFLS 120340Z 32014G20KT 03/00 A2992 RMK A01 T00320000  RH  081%=      5-min Rain = 0
KFLS 120345Z 32013G18KT 03/M00 A2992 RMK A01 T00301001  RH  081%=      5-min Rain = 0
KFLS 120350Z 31012G17KT 03/M00 A2992 RMK A01 T00281001  RH  082%=      5-min Rain = 0
KFLS 120355Z 31011KT 03/M00 A2992 RMK A01 T00251002  RH  083%=      5-min Rain = 0
KFLS 120400Z 31012KT 02/M00 A2993 RMK A01 T00241003  RH  084%=      5-min Rain = 0
KFLS 120405Z 31013G20KT 02/M00 A2993 RMK A01 T00241003  RH  083%=      5-min Rain = 0
KFLS 120410Z 30011KT 02/M00 A2993 RMK A01 T00231004  RH  084%=      5-min Rain = 0
KFLS 120415Z 30011G16KT 02/M01 A2993 RMK A01 T00211005  RH  084%=      5-min Rain = 0
KFLS 120420Z 30012KT 02/M01 A2993 RMK A01 T00191005  RH  085%=      5-min Rain = 0
KFLS 120425Z 30012KT 02/M00 A2993 RMK A01 T00191004  RH  085%=      5-min Rain = 0
KFLS 120430Z 30012KT 02/M01 A2994 RMK A01 T00191005  RH  085%=      5-min Rain = 0
KFLS 120435Z 30012G17KT 02/M01 A2994 RMK A01 T00181006  RH  085%=      5-min Rain = 0
KFLS 120440Z 30011KT 02/M01 A2994 RMK A01 T00161006  RH  086%=      5-min Rain = 0
KFLS 120445Z 30011KT 02/M01 A2994 RMK A01 T00181005  RH  086%=      5-min Rain = 0
KFLS 120450Z 30010KT 02/M01 A2994 RMK A01 T00161007  RH  086%=      5-min Rain = 0
KFLS 120455Z 30010KT 02/M01 A2994 RMK A01 T00161007  RH  086%=      5-min Rain = 0
KFLS 120500Z 30009KT 01/M01 A2994 RMK A01 T00141007  RH  087%=      5-min Rain = 0
KFLS 120505Z 30009KT 01/M01 A2994 RMK A01 T00131008  RH  087%=      5-min Rain = 0
KFLS 120510Z 30009KT 01/M01 A2994 RMK A01 T00131007  RH  088%=      5-min Rain = 0
KFLS 120515Z 30008KT 01/M01 A2994 RMK A01 T00121007  RH  088%=      5-min Rain = 0
KFLS 120520Z 30009KT 01/M01 A2994 RMK A01 T00101008  RH  089%=      5-min Rain = 0
KFLS 120525Z 30012G17KT 01/M01 A2995 RMK A01 T00131005  RH  089%=      5-min Rain = 0
KFLS 120530Z 31013G18KT 02/M00 A2995 RMK A01 T00201002  RH  086%=      5-min Rain = 0
KFLS 120535Z 31012G17KT 02/M00 A2995 RMK A01 T00201003  RH  086%=      5-min Rain = 0
KFLS 120540Z 31013G19KT 02/M00 A2995 RMK A01 T00191003  RH  086%=      5-min Rain = 0
KFLS 120545Z 31013KT 02/M00 A2995 RMK A01 T00201003  RH  086%=      5-min Rain = 0
KFLS 120550Z 31011KT 02/M00 A2995 RMK A01 T00181004  RH  086%=      5-min Rain = 0
KFLS 120555Z 31012G18KT 02/M00 A2995 RMK A01 T00191004  RH  086%=      5-min Rain = 0

Page generated in 0.0091 seconds.